Time,TemperatureF,DewpointF,PressureIn,WindDirection,WindDirectionDegrees,WindSpeedMPH,WindSpeedGustMPH,Humidity,HourlyPrecipIn,Conditions,Clouds,dailyrainin,SoftwareType,DateUTC
2015-04-27 00:01:00,39.0,20.0,-100.00,NW,305,6.0,8.0,47,-99.99,,,-99.99,,2015-04-27 06:01:00,
2015-04-27 00:11:00,39.0,20.0,-100.00,NW,306,5.0,8.0,47,-99.99,,,-99.99,,2015-04-27 06:11:00,
2015-04-27 00:31:00,38.0,20.0,-100.00,NW,311,6.0,6.0,47,-99.99,,,-99.99,,2015-04-27 06:31:00,
2015-04-27 00:52:00,38.0,20.0,-100.00,WNW,299,6.0,8.0,47,-99.99,,,-99.99,,2015-04-27 06:52:00,
2015-04-27 01:01:00,38.0,20.0,-100.00,WNW,299,6.0,8.0,47,-99.99,,,-99.99,,2015-04-27 07:01:00,
2015-04-27 01:11:00,37.0,19.0,-100.00,WNW,291,6.0,7.0,48,-99.99,,,-99.99,,2015-04-27 07:11:00,
2015-04-27 01:31:00,37.0,20.0,-100.00,NW,319,5.0,7.0,49,-99.99,,,-99.99,,2015-04-27 07:31:00,
2015-04-27 01:41:00,37.0,20.0,-100.00,NW,319,5.0,7.0,49,-99.99,,,-99.99,,2015-04-27 07:41:00,
2015-04-27 02:01:00,36.0,20.0,-100.00,WSW,237,1.0,2.0,51,-99.99,,,-99.99,,2015-04-27 08:01:00,
2015-04-27 02:11:00,34.0,20.0,-100.00,SW,229,3.0,4.0,56,-99.99,,,-99.99,,2015-04-27 08:11:00,
2015-04-27 02:21:00,36.0,21.0,-100.00,WSW,254,4.0,4.0,56,-99.99,,,-99.99,,2015-04-27 08:21:00,
2015-04-27 02:41:00,33.0,19.0,-100.00,East,92,2.0,3.0,55,-99.99,,,-99.99,,2015-04-27 08:41:00,
2015-04-27 02:51:00,33.0,20.0,-100.00,WNW,292,2.0,2.0,57,-99.99,,,-99.99,,2015-04-27 08:51:00,
2015-04-27 03:00:00,33.0,20.0,-100.00,WNW,292,2.0,2.0,57,-99.99,,,-99.99,,2015-04-27 09:00:00,
2015-04-27 03:10:00,35.0,22.0,-100.00,WNW,287,0.0,1.0,59,-99.99,,,-99.99,,2015-04-27 09:10:00,
2015-04-27 03:21:00,34.0,21.0,-100.00,West,278,2.0,2.0,60,-99.99,,,-99.99,,2015-04-27 09:21:00,
2015-04-27 03:41:00,33.0,20.0,-100.00,West,267,3.0,3.0,60,-99.99,,,-99.99,,2015-04-27 09:41:00,
2015-04-27 04:01:00,30.0,19.0,-100.00,WSW,237,2.0,3.0,63,-99.99,,,-99.99,,2015-04-27 10:01:00,
2015-04-27 04:21:00,30.0,20.0,-100.00,WSW,241,2.0,3.0,66,-99.99,,,-99.99,,2015-04-27 10:21:00,
2015-04-27 04:31:00,29.0,20.0,-100.00,WNW,282,2.0,3.0,69,-99.99,,,-99.99,,2015-04-27 10:31:00,
2015-04-27 04:52:00,32.0,21.0,-100.00,North,350,2.0,3.0,63,-99.99,,,-99.99,,2015-04-27 10:52:00,
2015-04-27 05:01:00,32.0,21.0,-100.00,North,350,2.0,3.0,63,-99.99,,,-99.99,,2015-04-27 11:01:00,
2015-04-27 05:11:00,30.0,19.0,-100.00,NNE,13,5.0,5.0,65,-99.99,,,-99.99,,2015-04-27 11:11:00,
2015-04-27 05:41:00,28.0,19.0,-100.00,North,352,4.0,4.0,69,-99.99,,,-99.99,,2015-04-27 11:41:00,
2015-04-27 06:01:00,28.0,20.0,-100.00,NNW,330,2.0,4.0,72,-99.99,,,-99.99,,2015-04-27 12:01:00,
2015-04-27 06:11:00,26.0,19.0,-100.00,WNW,284,2.0,3.0,76,-99.99,,,-99.99,,2015-04-27 12:11:00,
2015-04-27 06:21:00,26.0,19.0,-100.00,SW,227,2.0,3.0,77,-99.99,,,-99.99,,2015-04-27 12:21:00,
2015-04-27 06:31:00,26.0,19.0,-100.00,SW,227,2.0,3.0,77,-99.99,,,-99.99,,2015-04-27 12:31:00,
2015-04-27 07:01:00,28.0,21.0,-100.00,NNW,344,2.0,3.0,75,-99.99,,,-99.99,,2015-04-27 13:01:00,
2015-04-27 07:21:00,27.0,20.0,-100.00,North,3,0.0,0.0,76,-99.99,,,-99.99,,2015-04-27 13:21:00,
2015-04-27 07:41:00,26.0,17.0,-100.00,West,260,2.0,3.0,70,-99.99,,,-99.99,,2015-04-27 13:41:00,
2015-04-27 07:51:00,26.0,17.0,-100.00,West,260,2.0,3.0,70,-99.99,,,-99.99,,2015-04-27 13:51:00,
2015-04-27 08:10:00,33.0,21.0,-100.00,WNW,302,2.0,2.0,62,-99.99,,,-99.99,,2015-04-27 14:10:00,
2015-04-27 08:21:00,34.0,21.0,-100.00,NNW,339,1.0,2.0,58,-99.99,,,-99.99,,2015-04-27 14:21:00,
2015-04-27 08:31:00,34.0,21.0,-100.00,NNW,339,1.0,2.0,58,-99.99,,,-99.99,,2015-04-27 14:31:00,
2015-04-27 08:51:00,39.0,20.0,-100.00,NNW,335,3.0,4.0,46,-99.99,,,-99.99,,2015-04-27 14:51:00,
2015-04-27 09:01:00,39.0,20.0,-100.00,NNW,335,3.0,4.0,46,-99.99,,,-99.99,,2015-04-27 15:01:00,
2015-04-27 09:21:00,40.0,19.0,-100.00,NE,42,2.0,4.0,42,-99.99,,,-99.99,,2015-04-27 15:21:00,
2015-04-27 09:31:00,43.0,19.0,-100.00,East,79,1.0,2.0,38,-99.99,,,-99.99,,2015-04-27 15:31:00,
2015-04-27 10:31:00,46.0,17.0,-100.00,ENE,62,1.0,3.0,31,-99.99,,,-99.99,,2015-04-27 16:31:00,
2015-04-27 10:52:00,46.0,23.0,-100.00,ESE,107,6.0,8.0,40,-99.99,,,-99.99,,2015-04-27 16:52:00,
2015-04-27 11:11:00,47.0,23.0,-100.00,SE,128,6.0,9.0,39,-99.99,,,-99.99,,2015-04-27 17:11:00,
2015-04-27 11:21:00,47.0,22.0,-100.00,ENE,68,7.0,9.0,37,-99.99,,,-99.99,,2015-04-27 17:21:00,
2015-04-27 11:31:00,47.0,22.0,-100.00,ENE,68,7.0,9.0,37,-99.99,,,-99.99,,2015-04-27 17:31:00,
2015-04-27 11:42:00,48.0,21.0,-100.00,ESE,117,7.0,11.0,34,-99.99,,,-99.99,,2015-04-27 17:42:00,
2015-04-27 12:11:00,49.0,20.0,-100.00,South,182,3.0,4.0,32,-99.99,,,-99.99,,2015-04-27 18:11:00,
2015-04-27 12:22:00,49.0,20.0,-100.00,South,182,3.0,4.0,32,-99.99,,,-99.99,,2015-04-27 18:22:00,
2015-04-27 12:31:00,49.0,20.0,-100.00,South,182,3.0,4.0,32,-99.99,,,-99.99,,2015-04-27 18:31:00,
2015-04-27 12:42:00,49.0,20.0,-100.00,South,182,3.0,4.0,32,-99.99,,,-99.99,,2015-04-27 18:42:00,
2015-04-27 14:01:00,53.0,23.0,-100.00,South,184,7.0,13.0,31,-99.99,,,-99.99,,2015-04-27 20:01:00,
2015-04-27 14:11:00,53.0,23.0,-100.00,South,184,7.0,13.0,31,-99.99,,,-99.99,,2015-04-27 20:11:00,
2015-04-27 14:21:00,53.0,23.0,-100.00,South,184,7.0,13.0,31,-99.99,,,-99.99,,2015-04-27 20:21:00,